Time;durP1;ratioP1;P1;durP2;ratioP2;P2;SDS_P1;SDS_P2;PMS_P1;PMS_P2;Temp;Humidity;BMP_temperature;BMP_pressure;BME280_temperature;BME280_humidity;BME280_pressure;Samples;Min_cycle;Max_cycle;Signal;HPM_P1;HPM_P2
2021/04/24 00:00:19;;;;;;;3.95;1.80;;;;;;;20.00;46.15;102046.78;2072540;28;20433;-63
2021/04/24 00:01:22;;;;;;;3.60;1.80;;;;;;;20.00;46.61;102035.91;2072657;28;20034;-62
2021/04/24 00:02:22;;;;;;;3.40;1.70;;;;;;;20.01;46.18;102044.91;2072066;28;20022;-63
2021/04/24 00:03:24;;;;;;;5.07;1.70;;;;;;;20.00;46.00;102044.06;2072641;28;20485;-63
2021/04/24 00:04:25;;;;;;;6.15;1.60;;;;;;;20.00;46.48;102048.63;2072651;28;20038;-63
2021/04/24 00:05:38;;;;;;;3.25;1.50;;;;;;;20.02;46.73;102046.59;2072780;28;20026;-63
2021/04/24 00:06:39;;;;;;;3.28;1.77;;;;;;;20.01;46.18;102045.75;2072382;28;20538;-63
2021/04/24 00:07:39;;;;;;;5.32;1.95;;;;;;;19.99;46.86;102047.78;2072780;28;20111;-63
2021/04/24 00:08:40;;;;;;;4.47;1.65;;;;;;;20.01;46.30;102042.19;2072610;28;20493;-63
2021/04/24 00:09:40;;;;;;;3.58;1.70;;;;;;;20.00;46.51;102045.94;2072250;28;20025;-63
2021/04/24 00:10:43;;;;;;;2.83;1.48;;;;;;;19.99;46.25;102044.22;2072668;28;20030;-63
2021/04/24 00:11:43;;;;;;;3.38;1.60;;;;;;;19.98;46.63;102047.97;2072450;28;20034;-63
2021/04/24 00:12:44;;;;;;;2.83;1.40;;;;;;;19.97;46.46;102043.53;2072630;28;20531;-63
2021/04/24 00:13:45;;;;;;;4.63;1.60;;;;;;;19.95;46.40;102040.97;2072469;28;20034;-63
2021/04/24 00:14:46;;;;;;;3.97;1.70;;;;;;;19.96;46.38;102044.56;2072562;28;20152;-62
2021/04/24 00:15:47;;;;;;;2.88;1.60;;;;;;;19.94;47.00;102044.72;2072504;28;20437;-63
2021/04/24 00:16:47;;;;;;;2.70;1.45;;;;;;;19.97;46.23;102040.81;2072323;28;20030;-63
2021/04/24 00:17:48;;;;;;;2.78;1.55;;;;;;;19.96;46.41;102039.97;2072608;28;20030;-63
2021/04/24 00:18:48;;;;;;;3.40;1.95;;;;;;;19.95;46.32;102038.28;2072535;28;20033;-63
2021/04/24 00:19:49;;;;;;;2.75;1.52;;;;;;;19.95;46.94;102046.44;2072465;28;20460;-63
2021/04/24 00:20:49;;;;;;;4.65;1.60;;;;;;;19.95;46.33;102042.84;2072669;28;20034;-63
2021/04/24 00:21:50;;;;;;;4.22;1.52;;;;;;;19.92;46.30;102038.59;2072303;28;20060;-62
2021/04/24 00:22:53;;;;;;;2.85;1.70;;;;;;;19.94;46.27;102043.88;2072441;28;20489;-63
2021/04/24 00:23:53;;;;;;;3.50;1.80;;;;;;;19.94;46.66;102046.59;2072182;28;20042;-63
2021/04/24 00:24:53;;;;;;;4.55;1.83;;;;;;;19.94;46.65;102043.88;2071980;28;20022;-63
2021/04/24 00:25:54;;;;;;;3.53;1.50;;;;;;;19.94;46.80;102043.88;2071897;28;20461;-63
2021/04/24 00:26:54;;;;;;;2.42;1.60;;;;;;;19.95;46.18;102043.72;2072514;28;20061;-63
2021/04/24 00:27:55;;;;;;;3.17;1.70;;;;;;;19.94;46.52;102043.88;2072631;28;20469;-63
2021/04/24 00:28:56;;;;;;;2.38;1.50;;;;;;;19.96;46.47;102050.00;2072594;28;20061;-63
2021/04/24 00:29:56;;;;;;;5.55;1.70;;;;;;;19.93;46.56;102037.59;2072502;28;20030;-62
2021/04/24 00:30:57;;;;;;;2.47;1.50;;;;;;;19.94;46.88;102044.72;2072527;28;20487;-63
2021/04/24 00:31:57;;;;;;;3.50;1.50;;;;;;;19.93;47.03;102043.03;2072115;28;20068;-62
2021/04/24 00:32:58;;;;;;;4.63;1.42;;;;;;;19.95;46.89;102049.13;2072480;28;20041;-62
2021/04/24 00:33:58;;;;;;;4.85;1.55;;;;;;;19.92;46.96;102049.47;2072516;28;20102;-63
2021/04/24 00:34:59;;;;;;;3.22;1.50;;;;;;;19.93;47.06;102043.03;2072539;28;20029;-62
2021/04/24 00:36:00;;;;;;;2.80;1.30;;;;;;;19.94;47.43;102042.00;2072135;28;20485;-63
2021/04/24 00:37:00;;;;;;;2.50;1.40;;;;;;;19.94;47.23;102041.16;2072570;28;20500;-63
2021/04/24 00:38:01;;;;;;;2.70;1.50;;;;;;;19.94;46.89;102047.44;2072430;28;20509;-62
2021/04/24 00:39:01;;;;;;;3.97;1.60;;;;;;;19.93;47.12;102045.75;2072204;28;20018;-63
2021/04/24 00:40:04;;;;;;;3.58;1.70;;;;;;;19.92;47.31;102051.38;2072356;28;20030;-63
2021/04/24 00:41:04;;;;;;;2.63;1.40;;;;;;;19.91;47.26;102041.53;2072518;28;20374;-62
2021/04/24 00:42:05;;;;;;;3.55;1.33;;;;;;;19.90;47.41;102045.25;2072396;28;20113;-63
2021/04/24 00:43:06;;;;;;;3.03;1.50;;;;;;;19.93;47.18;102043.03;2072299;28;20428;-63
2021/04/24 00:44:06;;;;;;;1.88;1.40;;;;;;;19.95;47.58;102040.13;2072350;28;20038;-63
2021/04/24 00:45:11;;;;;;;4.32;1.95;;;;;;;19.99;46.90;102038.78;2071843;28;20068;-63
2021/04/24 00:46:14;;;;;;;2.28;1.48;;;;;;;19.99;47.11;102039.63;2071470;28;20106;-64
2021/04/24 00:47:18;;;;;;;4.53;1.58;;;;;;;20.00;47.70;102043.22;2072502;28;20042;-63
2021/04/24 00:48:18;;;;;;;2.03;1.45;;;;;;;19.99;47.10;102049.66;2072319;28;20018;-63
2021/04/24 00:49:19;;;;;;;4.50;1.83;;;;;;;19.99;47.10;102038.78;2072539;28;20022;-63
2021/04/24 00:50:25;;;;;;;3.28;1.55;;;;;;;20.00;47.10;102035.06;2073004;28;20029;-63
2021/04/24 00:51:26;;;;;;;2.30;1.23;;;;;;;20.00;47.27;102035.06;2073877;28;20026;-63
2021/04/24 00:52:26;;;;;;;6.63;1.80;;;;;;;20.00;46.93;102040.47;2073636;28;20068;-63
2021/04/24 00:53:27;;;;;;;4.22;1.45;;;;;;;20.00;47.01;102035.91;2072870;28;20045;-63
2021/04/24 00:54:27;;;;;;;2.38;1.40;;;;;;;19.98;47.39;102037.94;2073334;28;20022;-63
2021/04/24 00:55:28;;;;;;;3.42;1.70;;;;;;;19.98;47.13;102037.09;2073950;28;20494;-62
2021/04/24 00:56:28;;;;;;;4.22;2.00;;;;;;;19.98;47.06;102037.09;2073754;28;20045;-63
2021/04/24 00:57:30;;;;;;;3.33;1.50;;;;;;;19.97;47.42;102035.38;2073960;28;20080;-62
2021/04/24 00:58:33;;;;;;;2.90;1.70;;;;;;;19.98;47.42;102034.38;2073908;28;20022;-63
2021/04/24 00:59:36;;;;;;;6.00;1.88;;;;;;;19.97;47.26;102038.94;2073952;28;20404;-63
2021/04/24 01:00:37;;;;;;;3.03;1.50;;;;;;;19.97;47.00;102038.09;2073764;28;20041;-63
2021/04/24 01:01:38;;;;;;;6.35;1.70;;;;;;;19.97;47.66;102035.38;2073718;28;20531;-63
2021/04/24 01:02:39;;;;;;;2.97;1.88;;;;;;;19.98;47.23;102037.09;2073836;28;20061;-63
2021/04/24 01:03:39;;;;;;;3.90;1.77;;;;;;;19.97;47.55;102029.94;2073870;28;20025;-63
2021/04/24 01:04:40;;;;;;;3.00;1.77;;;;;;;19.98;47.70;102035.22;2073720;28;20385;-63
2021/04/24 01:05:42;;;;;;;3.60;1.70;;;;;;;19.99;47.60;102036.91;2073850;28;20034;-62
2021/04/24 01:06:43;;;;;;;4.03;1.80;;;;;;;19.99;47.63;102033.34;2072910;28;20026;-63
2021/04/24 01:07:43;;;;;;;3.17;1.60;;;;;;;19.99;48.09;102036.06;2073179;28;20057;-63
2021/04/24 01:08:44;;;;;;;3.47;1.58;;;;;;;19.98;47.91;102035.22;2073543;28;20038;-63
2021/04/24 01:09:44;;;;;;;2.55;1.50;;;;;;;19.99;47.88;102036.91;2073745;28;20545;-63
2021/04/24 01:10:45;;;;;;;3.45;1.63;;;;;;;19.98;47.89;102040.66;2073881;28;20026;-63
2021/04/24 01:11:46;;;;;;;5.60;1.73;;;;;;;19.98;47.58;102039.81;2073648;28;20429;-62
2021/04/24 01:12:48;;;;;;;3.50;1.60;;;;;;;19.98;47.59;102042.53;2073720;28;20026;-63
2021/04/24 01:13:48;;;;;;;2.35;1.50;;;;;;;19.96;47.46;102036.41;2073739;28;20080;-63
2021/04/24 01:14:49;;;;;;;3.88;1.98;;;;;;;19.94;47.29;102036.56;2073915;28;20547;-63
2021/04/24 01:15:49;;;;;;;5.35;1.60;;;;;;;19.95;47.57;102038.28;2073240;28;20759;-63
2021/04/24 01:16:50;;;;;;;2.78;1.55;;;;;;;19.95;47.54;102048.28;2073706;28;20034;-63
2021/04/24 01:17:51;;;;;;;4.80;1.77;;;;;;;19.95;47.99;102034.69;2073665;28;20092;-63
2021/04/24 01:18:51;;;;;;;3.10;1.38;;;;;;;19.96;47.62;102039.13;2073821;28;20037;-63
2021/04/24 01:19:53;;;;;;;3.47;1.63;;;;;;;19.97;48.06;102043.53;2073614;28;20030;-63
2021/04/24 01:20:56;;;;;;;2.20;1.42;;;;;;;19.95;48.09;102040.13;2073586;28;20576;-63
2021/04/24 01:22:10;;;;;;;2.92;1.55;;;;;;;19.95;48.26;102049.13;2073546;28;20033;-63
2021/04/24 01:23:10;;;;;;;2.47;1.60;;;;;;;19.95;47.86;102037.41;2073227;28;20481;-63
2021/04/24 01:24:11;;;;;;;1.85;1.30;;;;;;;19.95;48.54;102040.13;2073690;28;20053;-63
2021/04/24 01:25:21;;;;;;;3.22;1.40;;;;;;;19.95;48.24;102035.56;2073655;28;20531;-62
2021/04/24 01:26:22;;;;;;;2.03;1.30;;;;;;;19.95;48.42;102043.72;2073615;28;20145;-62
2021/04/24 01:27:23;;;;;;;4.20;1.75;;;;;;;19.95;48.46;102037.41;2073786;28;20042;-62
2021/04/24 01:28:23;;;;;;;2.80;1.63;;;;;;;19.94;48.15;102041.16;2073511;28;20113;-62
2021/04/24 01:29:24;;;;;;;2.58;1.63;;;;;;;19.93;48.59;102034.88;2073727;28;20041;-62
2021/04/24 01:30:29;;;;;;;2.40;1.42;;;;;;;19.93;48.57;102040.31;2073159;28;20037;-62
2021/04/24 01:31:36;;;;;;;3.20;1.75;;;;;;;19.93;47.88;102039.44;2073806;28;20057;-62
2021/04/24 01:32:38;;;;;;;3.33;1.50;;;;;;;19.92;48.53;102032.34;2073484;28;20030;-62
2021/04/24 01:33:38;;;;;;;2.80;1.70;;;;;;;19.93;48.44;102031.28;2073574;28;20037;-63
2021/04/24 01:34:39;;;;;;;2.67;1.45;;;;;;;19.91;48.30;102036.94;2073611;28;20057;-63
2021/04/24 01:35:41;;;;;;;2.90;1.50;;;;;;;19.93;48.07;102037.59;2073809;28;20028;-62
2021/04/24 01:36:42;;;;;;;2.65;1.55;;;;;;;19.92;48.60;102035.06;2073154;28;20026;-62
2021/04/24 01:37:43;;;;;;;2.55;1.50;;;;;;;19.92;48.15;102024.19;2073760;28;20025;-63
2021/04/24 01:38:43;;;;;;;3.70;1.63;;;;;;;19.93;48.02;102029.44;2073387;28;20049;-62
2021/04/24 01:39:44;;;;;;;3.20;1.80;;;;;;;19.94;47.72;102031.13;2073574;28;20034;-63
2021/04/24 01:40:45;;;;;;;2.28;1.52;;;;;;;19.94;48.15;102027.56;2073479;28;20304;-63
2021/04/24 01:41:45;;;;;;;2.42;1.70;;;;;;;19.95;48.05;102031.97;2073579;28;20026;-63
2021/04/24 01:42:47;;;;;;;3.47;1.52;;;;;;;19.94;48.05;102030.28;2073602;28;20386;-63
2021/04/24 01:43:51;;;;;;;6.03;1.45;;;;;;;19.94;48.62;102033.84;2073281;28;20061;-63
2021/04/24 01:44:52;;;;;;;2.55;1.65;;;;;;;19.95;48.16;102026.56;2073409;28;20485;-62
2021/04/24 01:45:53;;;;;;;2.67;1.60;;;;;;;19.95;48.26;102031.97;2073250;28;20113;-62
2021/04/24 01:46:53;;;;;;;2.15;1.58;;;;;;;19.92;47.86;102035.06;2073599;28;20084;-62
2021/04/24 01:47:55;;;;;;;2.90;1.52;;;;;;;19.91;47.92;102034.22;2073563;28;20512;-62
2021/04/24 01:48:56;;;;;;;2.45;1.58;;;;;;;19.91;48.02;102034.22;2072746;28;20034;-62
2021/04/24 01:49:56;;;;;;;2.05;1.40;;;;;;;19.90;47.40;102028.94;2066436;28;20505;-62
2021/04/24 01:50:57;;;;;;;2.63;1.50;;;;;;;19.90;47.44;102037.09;2068426;28;20033;-62
2021/04/24 01:51:57;;;;;;;7.20;1.50;;;;;;;19.88;47.94;102034.56;2073471;28;20493;-62
2021/04/24 01:52:59;;;;;;;3.00;1.60;;;;;;;19.88;47.77;102033.69;2073096;28;20072;-62
2021/04/24 01:54:00;;;;;;;2.78;1.52;;;;;;;19.88;47.43;102036.41;2073364;28;20041;-62
2021/04/24 01:55:02;;;;;;;2.45;1.63;;;;;;;19.88;47.74;102033.69;2073436;28;20467;-61
2021/04/24 01:56:03;;;;;;;3.67;1.80;;;;;;;19.88;48.20;102036.41;2073413;28;20519;-62
2021/04/24 01:57:04;;;;;;;4.28;1.83;;;;;;;19.86;47.63;102036.59;2073530;28;20038;-62
2021/04/24 01:58:07;;;;;;;2.78;1.70;;;;;;;19.87;47.75;102037.44;2073297;28;20034;-62
2021/04/24 01:59:08;;;;;;;3.25;1.58;;;;;;;19.86;47.33;102042.03;2073370;28;20029;-62
2021/04/24 02:00:11;;;;;;;2.60;1.67;;;;;;;19.86;47.20;102042.03;2073041;28;20061;-62
2021/04/24 02:01:12;;;;;;;1.95;1.35;;;;;;;19.87;47.89;102035.56;2089113;28;20491;-62
2021/04/24 02:02:13;;;;;;;1.92;1.50;;;;;;;19.88;47.37;102041.84;2088613;28;20032;-62
2021/04/24 02:03:14;;;;;;;2.30;1.48;;;;;;;19.86;47.53;102033.88;2073442;28;20069;-61
2021/04/24 02:04:17;;;;;;;2.55;1.60;;;;;;;19.87;47.23;102038.28;2073287;28;20116;-62
2021/04/24 02:05:18;;;;;;;2.08;1.60;;;;;;;19.87;47.27;102037.44;2073585;28;20025;-62
2021/04/24 02:06:19;;;;;;;4.43;1.80;;;;;;;19.85;47.11;102035.72;2073098;28;20465;-62
2021/04/24 02:07:19;;;;;;;2.53;1.58;;;;;;;19.85;48.35;102038.44;2073316;28;20035;-62
2021/04/24 02:08:26;;;;;;;4.10;2.00;;;;;;;19.87;47.36;102042.88;2073129;28;20034;-62
2021/04/24 02:09:26;;;;;;;2.35;1.60;;;;;;;19.84;47.41;102038.63;2073562;28;20022;-62
2021/04/24 02:10:28;;;;;;;2.72;1.70;;;;;;;19.84;47.91;102041.34;2073184;28;20046;-62
2021/04/24 02:11:29;;;;;;;4.70;1.63;;;;;;;19.83;47.28;102045.91;2073457;28;20033;-62
2021/04/24 02:12:29;;;;;;;5.03;1.85;;;;;;;19.83;47.40;102043.19;2073111;28;20029;-62
2021/04/24 02:13:34;;;;;;;2.72;1.50;;;;;;;19.82;48.41;102041.50;2073461;28;20092;-62
2021/04/24 02:14:46;;;;;;;1.88;1.38;;;;;;;19.84;47.45;102047.63;2073166;28;20033;-62
2021/04/24 02:15:47;;;;;;;3.30;1.60;;;;;;;19.83;47.52;102042.34;2073153;28;20061;-62
2021/04/24 02:16:47;;;;;;;3.08;1.50;;;;;;;19.84;47.73;102044.06;2073233;28;20042;-62
2021/04/24 02:17:48;;;;;;;2.47;1.45;;;;;;;19.84;47.56;102038.63;2073182;28;20105;-61
2021/04/24 02:18:49;;;;;;;3.72;1.45;;;;;;;19.83;47.79;102037.75;2073187;28;20034;-61
2021/04/24 02:19:50;;;;;;;2.38;1.63;;;;;;;19.83;47.48;102043.19;2073274;28;20045;-62
2021/04/24 02:20:51;;;;;;;4.65;1.73;;;;;;;19.84;47.91;102039.47;2072958;28;20022;-62
2021/04/24 02:21:51;;;;;;;2.65;1.60;;;;;;;19.84;47.48;102050.34;2088851;28;20032;-62
2021/04/24 02:22:52;;;;;;;2.40;1.70;;;;;;;19.85;47.37;102051.19;2088543;28;20123;-62
2021/04/24 02:23:56;;;;;;;3.20;1.77;;;;;;;19.87;47.58;102046.44;2073170;28;20477;-62
2021/04/24 02:24:59;;;;;;;2.35;1.40;;;;;;;19.86;48.07;102042.03;2073178;28;20084;-62
2021/04/24 02:26:00;;;;;;;2.70;1.50;;;;;;;19.85;47.70;102043.88;2073207;28;20482;-62
2021/04/24 02:27:02;;;;;;;1.95;1.50;;;;;;;19.85;47.79;102045.75;2073229;28;20025;-62
2021/04/24 02:28:03;;;;;;;3.10;1.70;;;;;;;19.84;47.60;102044.91;2073240;28;20028;-62
2021/04/24 02:29:04;;;;;;;2.78;1.60;;;;;;;19.84;47.89;102047.63;2073142;28;20389;-62
2021/04/24 02:30:10;;;;;;;3.80;1.70;;;;;;;19.84;47.92;102044.06;2072770;28;20026;-61
2021/04/24 02:31:10;;;;;;;4.03;1.70;;;;;;;19.84;48.05;102042.19;2073179;28;20046;-61
2021/04/24 02:32:12;;;;;;;2.28;1.48;;;;;;;19.84;47.67;102047.63;2073217;28;20393;-61
2021/04/24 02:33:13;;;;;;;2.67;1.80;;;;;;;19.85;47.55;102051.19;2088886;28;20500;-61
2021/04/24 02:34:13;;;;;;;1.98;1.58;;;;;;;19.88;48.45;102052.72;2088808;28;20025;-61
2021/04/24 02:35:21;;;;;;;2.67;1.63;;;;;;;19.89;48.20;102049.00;2073209;28;20027;-61
2021/04/24 02:36:21;;;;;;;2.05;1.17;;;;;;;19.88;48.88;102048.13;2072075;28;20037;-61
2021/04/24 02:37:22;;;;;;;2.72;1.67;;;;;;;19.85;49.11;102043.88;2072097;28;20044;-61
2021/04/24 02:38:24;;;;;;;2.63;1.55;;;;;;;19.85;48.81;102046.59;2073038;28;20030;-61
2021/04/24 02:39:32;;;;;;;3.05;1.63;;;;;;;19.86;48.73;102044.72;2073157;28;20543;-61
2021/04/24 02:40:33;;;;;;;2.88;1.42;;;;;;;19.85;48.73;102043.03;2073044;28;20037;-61
2021/04/24 02:41:33;;;;;;;2.38;1.50;;;;;;;19.87;48.93;102051.03;2073083;28;20072;-61
2021/04/24 02:42:34;;;;;;;2.55;1.63;;;;;;;19.85;48.33;102051.19;2073021;28;20026;-61
2021/04/24 02:43:34;;;;;;;2.38;1.48;;;;;;;19.84;48.72;102054.91;2072905;28;20072;-61
2021/04/24 02:44:35;;;;;;;2.95;1.50;;;;;;;19.83;48.99;102054.06;2072659;28;20482;-62
2021/04/24 02:45:36;;;;;;;2.28;1.40;;;;;;;19.83;48.97;102047.78;2073165;28;20022;-62
2021/04/24 02:46:36;;;;;;;2.65;1.58;;;;;;;19.83;48.66;102048.63;2072387;28;20505;-62
2021/04/24 02:47:37;;;;;;;2.03;1.50;;;;;;;19.81;48.84;102050.66;2072563;28;20422;-62
2021/04/24 02:48:37;;;;;;;3.03;1.42;;;;;;;19.82;48.35;102044.22;2072946;28;20470;-61
2021/04/24 02:49:39;;;;;;;2.63;1.65;;;;;;;19.82;48.81;102046.94;2072994;28;20076;-62
2021/04/24 02:50:40;;;;;;;2.63;1.40;;;;;;;19.83;48.64;102047.78;2072290;28;20524;-62
2021/04/24 02:51:40;;;;;;;1.85;1.42;;;;;;;19.81;48.45;102047.94;2072308;28;20053;-62
2021/04/24 02:52:42;;;;;;;2.40;1.50;;;;;;;19.80;48.51;102051.69;2088443;28;20036;-62
2021/04/24 02:53:42;;;;;;;2.58;1.40;;;;;;;19.80;48.58;102046.25;2088709;28;20033;-62
2021/04/24 02:54:43;;;;;;;2.70;1.45;;;;;;;19.80;48.54;102050.84;2072920;28;20531;-61
2021/04/24 02:55:43;;;;;;;2.55;1.38;;;;;;;19.80;48.52;102050.84;2072938;28;20038;-62
2021/04/24 02:56:44;;;;;;;2.28;1.60;;;;;;;19.81;48.53;102058.81;2073024;28;20032;-61
2021/04/24 02:57:45;;;;;;;2.03;1.60;;;;;;;19.80;48.72;102053.56;2072953;28;20417;-63
2021/04/24 02:58:45;;;;;;;2.20;1.40;;;;;;;19.79;48.76;102058.13;2072939;28;20530;-63
2021/04/24 02:59:46;;;;;;;1.40;1.30;;;;;;;19.80;48.98;102054.41;2072563;28;20030;-62
2021/04/24 03:00:46;;;;;;;2.33;1.45;;;;;;;19.80;48.76;102050.84;2073103;28;20404;-62
2021/04/24 03:01:47;;;;;;;2.42;1.63;;;;;;;19.80;49.37;102058.97;2072862;28;20504;-63
2021/04/24 03:02:59;;;;;;;1.65;1.38;;;;;;;19.81;48.38;102060.69;2072951;28;20499;-62
2021/04/24 03:03:59;;;;;;;3.28;1.60;;;;;;;19.80;48.92;102054.41;2072940;28;20046;-62
2021/04/24 03:05:00;;;;;;;2.75;1.58;;;;;;;19.79;49.17;102057.28;2072827;28;20029;-62
2021/04/24 03:06:01;;;;;;;3.55;1.75;;;;;;;19.79;48.60;102055.41;2072662;28;20110;-61
2021/04/24 03:07:01;;;;;;;3.08;1.50;;;;;;;19.78;48.48;102056.44;2072563;28;20393;-61
2021/04/24 03:08:06;;;;;;;2.03;1.40;;;;;;;19.79;49.13;102052.69;2072748;28;20029;-61
2021/04/24 03:09:07;;;;;;;5.03;1.70;;;;;;;19.77;49.13;102059.31;2072215;28;20496;-61
2021/04/24 03:10:10;;;;;;;3.15;1.60;;;;;;;19.79;48.75;102058.13;2072259;28;20030;-61
2021/04/24 03:11:11;;;;;;;2.42;1.50;;;;;;;19.79;49.03;102062.72;2072864;28;20420;-62
2021/04/24 03:12:11;;;;;;;2.35;1.55;;;;;;;19.79;49.10;102066.28;2072865;28;20030;-62
2021/04/24 03:13:12;;;;;;;2.40;1.52;;;;;;;19.80;48.98;102069.84;2072507;28;20022;-62
2021/04/24 03:14:12;;;;;;;2.10;1.42;;;;;;;19.80;48.89;102057.13;2072436;28;20057;-64
2021/04/24 03:15:14;;;;;;;2.08;1.50;;;;;;;19.81;49.16;102063.41;2072685;28;20492;-62
2021/04/24 03:16:14;;;;;;;2.63;1.50;;;;;;;19.80;49.56;102058.97;2072872;28;20052;-62
2021/04/24 03:17:15;;;;;;;2.30;1.40;;;;;;;19.79;48.48;102063.56;2073125;28;20072;-62
2021/04/24 03:18:15;;;;;;;3.03;1.60;;;;;;;19.79;48.99;102054.56;2072799;28;20084;-62
2021/04/24 03:19:16;;;;;;;3.25;1.60;;;;;;;19.81;49.37;102060.69;2073006;28;20030;-62
2021/04/24 03:20:18;;;;;;;2.90;1.60;;;;;;;19.83;49.11;102062.22;2072742;28;20107;-62
2021/04/24 03:21:24;;;;;;;3.28;1.60;;;;;;;19.81;49.12;102055.25;2072489;28;20069;-62
2021/04/24 03:22:24;;;;;;;2.95;1.40;;;;;;;19.84;48.99;102052.22;2072786;28;20439;-62
2021/04/24 03:23:24;;;;;;;1.77;1.38;;;;;;;19.82;48.96;102049.66;2072802;28;20038;-62
2021/04/24 03:24:25;;;;;;;2.53;1.55;;;;;;;19.82;48.81;102052.38;2072779;28;20131;-62
2021/04/24 03:25:26;;;;;;;5.18;1.77;;;;;;;19.84;48.36;102049.47;2072831;28;20033;-63
2021/04/24 03:26:28;;;;;;;2.58;1.75;;;;;;;19.83;48.49;102050.50;2072779;28;20052;-62
2021/04/24 03:27:29;;;;;;;2.72;1.83;;;;;;;19.83;48.31;102045.91;2072767;28;20058;-62
2021/04/24 03:28:29;;;;;;;2.30;1.70;;;;;;;19.82;48.92;102038.78;2072757;28;20385;-62
2021/04/24 03:29:30;;;;;;;2.88;1.60;;;;;;;19.83;48.69;102045.06;2072674;28;20030;-62
2021/04/24 03:30:30;;;;;;;5.00;1.80;;;;;;;19.82;48.60;102032.50;2072701;28;20377;-62
2021/04/24 03:31:31;;;;;;;3.25;1.92;;;;;;;19.82;48.59;102038.78;2072896;28;20029;-62
2021/04/24 03:32:32;;;;;;;3.28;1.67;;;;;;;19.82;47.93;102035.22;2072722;28;20037;-62
2021/04/24 03:33:33;;;;;;;2.28;1.50;;;;;;;19.81;47.85;102034.38;2072798;28;20033;-62
2021/04/24 03:34:34;;;;;;;2.38;1.77;;;;;;;19.82;48.18;102035.22;2072704;28;20038;-62
2021/04/24 03:35:34;;;;;;;2.13;1.50;;;;;;;19.81;47.60;102039.78;2072859;28;20025;-62
2021/04/24 03:36:35;;;;;;;2.55;1.60;;;;;;;19.81;48.16;102037.06;2072073;28;20404;-62
2021/04/24 03:37:36;;;;;;;3.78;1.60;;;;;;;19.80;47.49;102035.38;2072733;28;20026;-62
2021/04/24 03:38:37;;;;;;;3.13;1.45;;;;;;;19.79;48.11;102039.13;2072656;28;20034;-62
2021/04/24 03:39:37;;;;;;;3.55;2.03;;;;;;;19.79;47.91;102030.13;2072804;28;20440;-62
2021/04/24 03:40:38;;;;;;;2.35;1.50;;;;;;;19.80;47.51;102037.25;2072681;28;20038;-62
2021/04/24 03:41:39;;;;;;;2.95;1.60;;;;;;;19.80;47.58;102034.53;2072724;28;20037;-62
2021/04/24 03:42:39;;;;;;;2.60;1.65;;;;;;;19.80;48.07;102029.09;2072621;28;20076;-61
2021/04/24 03:43:40;;;;;;;2.85;1.75;;;;;;;19.80;47.63;102029.94;2072242;28;20049;-62
2021/04/24 03:44:42;;;;;;;2.60;1.65;;;;;;;19.81;48.51;102030.78;2072731;28;20084;-62
2021/04/24 03:45:42;;;;;;;1.73;1.40;;;;;;;19.81;48.11;102025.34;2072671;28;20084;-62
2021/04/24 03:46:43;;;;;;;2.92;1.77;;;;;;;19.80;48.06;102021.78;2072802;28;20072;-62
2021/04/24 03:47:54;;;;;;;2.67;1.60;;;;;;;19.81;47.93;102022.66;2072618;28;20489;-62
2021/04/24 03:48:55;;;;;;;2.50;1.75;;;;;;;19.81;48.77;102033.50;2072672;28;20496;-62
2021/04/24 03:49:55;;;;;;;4.18;1.73;;;;;;;19.80;48.29;102024.50;2072632;28;20030;-62
2021/04/24 03:50:56;;;;;;;2.95;1.67;;;;;;;19.79;49.13;102032.84;2072393;28;20042;-62
2021/04/24 03:51:56;;;;;;;1.92;1.58;;;;;;;19.81;49.03;102030.78;2071787;28;20128;-62
2021/04/24 03:52:57;;;;;;;2.55;1.60;;;;;;;19.81;49.43;102031.66;2072079;28;20022;-62
2021/04/24 03:53:58;;;;;;;2.97;1.70;;;;;;;19.82;48.82;102027.91;2066638;28;20046;-62
2021/04/24 03:54:58;;;;;;;2.45;1.63;;;;;;;19.83;48.91;102034.19;2072783;28;20109;-62
2021/04/24 03:55:59;;;;;;;2.22;1.42;;;;;;;19.83;48.84;102034.19;2072574;28;20032;-62
2021/04/24 03:57:00;;;;;;;2.60;1.40;;;;;;;19.82;48.80;102035.22;2072688;28;20080;-62
2021/04/24 03:58:00;;;;;;;3.20;1.65;;;;;;;19.81;48.40;102037.06;2072556;28;20018;-62
2021/04/24 03:59:02;;;;;;;1.67;1.30;;;;;;;19.80;49.31;102040.81;2072440;28;20052;-62
2021/04/24 04:00:07;;;;;;;3.03;1.60;;;;;;;19.80;49.13;102032.66;2072609;28;20550;-62
2021/04/24 04:01:07;;;;;;;2.97;1.83;;;;;;;19.80;48.69;102039.97;2072576;28;20022;-62
2021/04/24 04:02:08;;;;;;;2.58;1.67;;;;;;;19.80;48.89;102038.09;2072570;28;20063;-62
2021/04/24 04:03:09;;;;;;;1.65;1.40;;;;;;;19.81;48.73;102038.94;2072609;28;20033;-62
2021/04/24 04:04:10;;;;;;;2.30;1.63;;;;;;;19.80;49.04;102042.69;2071990;28;20098;-62
2021/04/24 04:05:11;;;;;;;3.53;1.50;;;;;;;19.80;48.98;102040.81;2072065;28;20577;-62
2021/04/24 04:06:12;;;;;;;3.42;1.67;;;;;;;19.81;49.11;102047.09;2072066;28;20466;-62
2021/04/24 04:07:13;;;;;;;3.13;1.65;;;;;;;19.81;48.35;102042.50;2072832;28;20026;-62
2021/04/24 04:08:15;;;;;;;2.50;1.42;;;;;;;19.81;48.61;102037.06;2072658;28;20033;-62
2021/04/24 04:09:15;;;;;;;3.05;1.60;;;;;;;19.82;49.26;102046.94;2072580;28;20041;-62
2021/04/24 04:10:17;;;;;;;2.25;1.40;;;;;;;19.82;49.48;102044.22;2072581;28;20524;-62
2021/04/24 04:11:18;;;;;;;2.42;1.52;;;;;;;19.83;48.65;102045.91;2072684;28;20029;-62
2021/04/24 04:12:19;;;;;;;2.08;1.42;;;;;;;19.83;48.54;102045.91;2072555;28;20397;-61
2021/04/24 04:13:19;;;;;;;3.00;1.40;;;;;;;19.84;49.60;102044.91;2072310;28;20481;-62
2021/04/24 04:14:20;;;;;;;2.70;1.52;;;;;;;19.85;49.03;102043.03;2072498;28;20110;-63
2021/04/24 04:15:22;;;;;;;4.72;1.45;;;;;;;19.82;49.27;102046.94;2072645;28;20034;-61
2021/04/24 04:16:24;;;;;;;2.83;1.40;;;;;;;19.82;48.72;102046.94;2072506;28;20438;-62
2021/04/24 04:17:24;;;;;;;3.17;1.70;;;;;;;19.81;48.32;102055.25;2072620;28;20030;-63
2021/04/24 04:18:24;;;;;;;2.25;1.30;;;;;;;19.80;48.93;102046.25;2072432;28;20473;-63
2021/04/24 04:19:25;;;;;;;2.75;1.60;;;;;;;19.79;48.82;102049.13;2072589;28;20074;-63
2021/04/24 04:20:25;;;;;;;3.13;1.70;;;;;;;19.81;48.95;102052.53;2072453;28;20052;-63
2021/04/24 04:21:26;;;;;;;3.20;1.73;;;;;;;19.79;49.30;102047.25;2072091;28;20065;-63
2021/04/24 04:22:26;;;;;;;3.45;1.83;;;;;;;19.80;48.52;102048.13;2072443;28;20389;-63
2021/04/24 04:23:27;;;;;;;1.70;1.30;;;;;;;19.78;49.51;102053.72;2072671;28;20385;-63
2021/04/24 04:24:28;;;;;;;2.35;1.48;;;;;;;19.78;49.43;102053.72;2072529;28;20081;-63
2021/04/24 04:25:28;;;;;;;8.32;1.65;;;;;;;19.77;49.09;102049.28;2072728;28;20532;-63
2021/04/24 04:26:29;;;;;;;2.13;1.50;;;;;;;19.76;48.15;102053.03;2073434;28;20425;-63
2021/04/24 04:27:30;;;;;;;2.28;1.50;;;;;;;19.76;49.53;102060.34;2073842;28;20069;-63
2021/04/24 04:28:30;;;;;;;1.50;1.40;;;;;;;19.76;48.20;102060.34;2073682;28;20030;-63
2021/04/24 04:29:32;;;;;;;2.65;1.42;;;;;;;19.74;48.35;102062.34;2074217;28;20025;-63
2021/04/24 04:30:33;;;;;;;1.73;1.40;;;;;;;19.73;48.79;102063.38;2074123;28;20441;-63
2021/04/24 04:31:34;;;;;;;2.38;1.52;;;;;;;19.71;49.06;102058.09;2074111;28;20044;-62
2021/04/24 04:32:35;;;;;;;2.42;1.58;;;;;;;19.72;48.93;102067.09;2074004;28;20026;-62
2021/04/24 04:33:35;;;;;;;2.58;1.48;;;;;;;19.70;48.74;102061.84;2074241;28;20053;-63
2021/04/24 04:34:36;;;;;;;2.67;1.48;;;;;;;19.72;49.56;102069.81;2089737;28;20036;-63
2021/04/24 04:35:38;;;;;;;2.00;1.50;;;;;;;19.72;49.13;102067.09;2081153;28;20033;-63
2021/04/24 04:36:38;;;;;;;1.98;1.40;;;;;;;19.72;49.47;102072.53;2072932;28;20097;-63
2021/04/24 04:37:39;;;;;;;2.72;1.60;;;;;;;19.72;49.08;102067.97;2069550;28;20026;-63
2021/04/24 04:38:40;;;;;;;2.15;1.50;;;;;;;19.72;49.26;102075.25;2073939;28;20076;-63
2021/04/24 04:39:41;;;;;;;2.20;1.42;;;;;;;19.70;49.36;102083.56;2074047;28;20034;-63
2021/04/24 04:40:45;;;;;;;2.78;1.70;;;;;;;19.72;48.49;102077.97;2067475;28;20027;-63
2021/04/24 04:41:45;;;;;;;3.33;1.80;;;;;;;19.68;47.62;102079.34;2074039;28;20100;-63
2021/04/24 04:42:46;;;;;;;2.90;1.80;;;;;;;19.66;47.83;102073.22;2073729;28;20473;-63
2021/04/24 04:43:47;;;;;;;3.40;1.98;;;;;;;19.68;48.01;102076.63;2073657;28;20125;-63
2021/04/24 04:44:47;;;;;;;3.47;1.90;;;;;;;19.68;48.12;102076.63;2074098;28;20048;-63